createdAt,value
2019-03-17T00:00:07.571Z,3.20
2019-03-17T00:02:36.000Z,2.60
2019-03-17T00:05:05.936Z,2.70
2019-03-17T00:07:34.366Z,3.33
2019-03-17T00:10:02.890Z,2.90
2019-03-17T00:12:31.729Z,2.70
2019-03-17T00:15:05.134Z,2.87
2019-03-17T00:17:30.349Z,2.87
2019-03-17T00:19:58.803Z,2.50
2019-03-17T00:22:27.254Z,2.53
2019-03-17T00:25:08.219Z,2.70
2019-03-17T00:27:25.820Z,2.13
2019-03-17T00:29:54.250Z,2.80
2019-03-17T00:32:22.716Z,2.53
2019-03-17T00:34:51.253Z,3.30
2019-03-17T00:37:19.611Z,2.70
2019-03-17T00:39:49.059Z,3.00
2019-03-17T00:42:17.641Z,2.50
2019-03-17T00:44:46.041Z,2.33
2019-03-17T00:47:14.493Z,2.40
2019-03-17T00:49:42.889Z,2.50
2019-03-17T00:52:11.313Z,3.33
2019-03-17T00:54:39.801Z,2.40
2019-03-17T00:57:08.204Z,2.20
2019-03-17T00:59:36.662Z,2.60
2019-03-17T01:02:05.088Z,2.73
2019-03-17T01:04:33.501Z,2.83
2019-03-17T01:07:01.929Z,2.30
2019-03-17T01:09:30.328Z,2.63
2019-03-17T01:11:59.532Z,2.93
2019-03-17T01:14:27.962Z,2.50
2019-03-17T01:16:56.369Z,2.63
2019-03-17T01:19:25.295Z,2.73
2019-03-17T01:21:53.745Z,2.53
2019-03-17T01:24:22.178Z,2.73
2019-03-17T01:26:50.636Z,2.53
2019-03-17T01:29:19.116Z,2.60
2019-03-17T01:31:47.504Z,2.40
2019-03-17T01:34:15.942Z,2.60
2019-03-17T01:36:44.336Z,2.10
2019-03-17T01:39:12.784Z,2.47
2019-03-17T01:41:41.221Z,2.13
2019-03-17T01:44:09.621Z,2.40
2019-03-17T01:46:38.125Z,2.10
2019-03-17T01:49:06.481Z,2.33
2019-03-17T01:51:34.886Z,2.63
2019-03-17T01:54:03.326Z,2.30
2019-03-17T01:56:31.787Z,2.57
2019-03-17T01:59:00.271Z,2.60
2019-03-17T02:01:28.680Z,3.13
2019-03-17T02:03:57.094Z,2.73
2019-03-17T02:06:25.514Z,2.67
2019-03-17T02:08:53.955Z,2.50
2019-03-17T02:11:22.351Z,3.33
2019-03-17T02:13:50.769Z,3.07
2019-03-17T02:16:19.203Z,3.10
2019-03-17T02:18:48.186Z,2.80
2019-03-17T02:21:16.603Z,2.90
2019-03-17T02:23:45.030Z,2.60
2019-03-17T02:26:13.454Z,2.70
2019-03-17T02:28:41.865Z,2.40
2019-03-17T02:31:10.286Z,2.30
2019-03-17T02:33:38.717Z,2.30
2019-03-17T02:36:07.127Z,2.20
2019-03-17T02:38:35.592Z,1.90
2019-03-17T02:41:04.007Z,2.30
2019-03-17T02:43:32.420Z,2.47
2019-03-17T02:46:02.989Z,2.60
2019-03-17T02:48:30.989Z,2.33
2019-03-17T02:51:00.230Z,2.63
2019-03-17T02:53:28.642Z,2.80
2019-03-17T02:55:57.083Z,2.80
2019-03-17T02:58:26.272Z,2.43
2019-03-17T03:00:54.678Z,2.60
2019-03-17T03:03:23.095Z,2.27
2019-03-17T03:05:55.391Z,1.90
2019-03-17T03:08:21.656Z,2.00
2019-03-17T03:10:50.148Z,2.47
2019-03-17T03:13:18.583Z,2.10
2019-03-17T03:15:47.027Z,2.50
2019-03-17T03:18:15.422Z,2.30
2019-03-17T03:20:43.847Z,1.80
2019-03-17T03:23:12.257Z,2.20
2019-03-17T03:25:40.677Z,2.10
2019-03-17T03:28:09.109Z,1.93
2019-03-17T03:30:37.522Z,2.47
2019-03-17T03:33:05.971Z,2.10
2019-03-17T03:35:34.377Z,1.90
2019-03-17T03:38:02.819Z,1.63
2019-03-17T03:40:31.218Z,2.03
2019-03-17T03:42:59.714Z,2.03
2019-03-17T03:45:28.143Z,2.00
2019-03-17T03:47:56.581Z,2.00
2019-03-17T03:50:25.065Z,2.37
2019-03-17T03:52:53.482Z,2.17
2019-03-17T03:55:21.918Z,2.10
2019-03-17T03:57:50.391Z,1.63
2019-03-17T04:00:18.910Z,1.70
2019-03-17T04:02:47.408Z,1.73
2019-03-17T04:05:15.821Z,1.80
2019-03-17T04:07:44.248Z,2.03
2019-03-17T04:10:12.734Z,1.97
2019-03-17T04:12:41.269Z,1.80
2019-03-17T04:15:11.044Z,2.00
2019-03-17T04:17:39.457Z,1.80
2019-03-17T04:20:10.005Z,1.87
2019-03-17T04:22:38.738Z,2.00
2019-03-17T04:25:07.966Z,2.37
2019-03-17T04:27:36.492Z,1.67
2019-03-17T04:30:07.576Z,1.90
2019-03-17T04:32:35.968Z,1.90
2019-03-17T04:35:06.448Z,1.90
2019-03-17T04:37:34.910Z,1.97
2019-03-17T04:40:04.042Z,1.60
2019-03-17T04:42:32.456Z,1.90
2019-03-17T04:45:00.876Z,1.67
2019-03-17T04:47:29.337Z,1.80
2019-03-17T04:49:57.757Z,2.20
2019-03-17T04:52:26.173Z,1.83
2019-03-17T04:54:54.616Z,2.00
2019-03-17T04:57:23.015Z,2.17
2019-03-17T04:59:51.443Z,2.30
2019-03-17T05:02:19.897Z,1.97
2019-03-17T05:04:48.299Z,2.23
2019-03-17T05:07:16.718Z,2.30
2019-03-17T05:09:45.146Z,2.00
2019-03-17T05:12:13.554Z,1.90
2019-03-17T05:14:42.021Z,1.93
2019-03-17T05:17:10.393Z,1.70
2019-03-17T05:19:38.825Z,2.53
2019-03-17T05:22:07.234Z,2.07
2019-03-17T05:24:35.640Z,1.70
2019-03-17T05:27:04.093Z,2.03
2019-03-17T05:29:32.512Z,2.40
2019-03-17T05:32:00.909Z,2.10
2019-03-17T05:34:29.429Z,1.70
2019-03-17T05:37:06.027Z,2.00
2019-03-17T05:39:27.986Z,1.83
2019-03-17T05:41:56.410Z,2.00
2019-03-17T05:44:24.827Z,2.10
2019-03-17T05:46:53.289Z,2.03
2019-03-17T05:49:21.711Z,1.93
2019-03-17T05:51:50.131Z,2.03
2019-03-17T05:54:18.550Z,2.10
2019-03-17T05:56:46.947Z,2.37
2019-03-17T05:59:15.368Z,2.17
2019-03-17T06:01:43.818Z,2.63
2019-03-17T06:04:12.214Z,2.00
2019-03-17T06:06:40.633Z,1.87
2019-03-17T06:09:09.078Z,2.57
2019-03-17T06:11:37.489Z,2.43
2019-03-17T06:14:05.916Z,2.60
2019-03-17T06:16:34.353Z,2.03
2019-03-17T06:19:02.753Z,2.23
2019-03-17T06:21:31.215Z,1.90
2019-03-17T06:23:59.623Z,2.67
2019-03-17T06:26:28.049Z,2.33
2019-03-17T06:28:56.479Z,2.10
2019-03-17T06:31:24.885Z,2.23
2019-03-17T06:33:53.322Z,2.00
2019-03-17T06:36:21.719Z,2.00
2019-03-17T06:38:50.121Z,2.03
2019-03-17T06:41:18.558Z,2.00
2019-03-17T06:43:46.961Z,2.50
2019-03-17T06:46:15.416Z,2.53
2019-03-17T06:48:43.859Z,2.20
2019-03-17T06:51:12.266Z,2.37
2019-03-17T06:53:40.723Z,2.17
2019-03-17T06:56:09.109Z,2.03
2019-03-17T06:58:37.525Z,2.57
2019-03-17T07:01:05.979Z,2.60
2019-03-17T07:03:34.383Z,2.57
2019-03-17T07:06:02.817Z,2.40
2019-03-17T07:08:31.251Z,2.27
2019-03-17T07:10:59.672Z,2.37
2019-03-17T07:13:28.096Z,2.50
2019-03-17T07:15:56.528Z,2.17
2019-03-17T07:18:24.936Z,3.27
2019-03-17T07:20:53.364Z,2.40
2019-03-17T07:23:21.804Z,2.17
2019-03-17T07:25:50.244Z,2.60
2019-03-17T07:28:18.678Z,2.50
2019-03-17T07:30:47.089Z,2.73
2019-03-17T07:33:15.564Z,2.13
2019-03-17T07:35:46.289Z,2.57
2019-03-17T07:38:14.077Z,1.97
2019-03-17T07:40:42.522Z,3.10
2019-03-17T07:43:10.918Z,3.10
2019-03-17T07:45:39.353Z,3.33
2019-03-17T07:48:07.798Z,3.20
2019-03-17T07:50:36.208Z,3.20
2019-03-17T07:53:04.698Z,3.23
2019-03-17T07:55:33.216Z,3.70
2019-03-17T07:58:01.597Z,2.90
2019-03-17T08:00:32.034Z,3.47
2019-03-17T08:03:00.233Z,3.43
2019-03-17T08:05:28.627Z,2.97
2019-03-17T08:08:08.884Z,3.80
2019-03-17T08:10:27.280Z,2.70
2019-03-17T08:12:55.701Z,3.57
2019-03-17T08:15:24.142Z,3.00
2019-03-17T08:17:52.641Z,3.13
2019-03-17T08:20:21.393Z,3.10
2019-03-17T08:22:49.839Z,2.90
2019-03-17T08:25:18.249Z,3.07
2019-03-17T08:27:46.937Z,2.70
2019-03-17T08:30:16.887Z,2.80
2019-03-17T08:32:45.316Z,2.60
2019-03-17T08:35:13.939Z,3.10
2019-03-17T08:37:42.364Z,2.90
2019-03-17T08:40:18.059Z,2.87
2019-03-17T08:42:46.472Z,2.70
2019-03-17T08:45:15.273Z,2.53
2019-03-17T08:47:56.649Z,2.57
2019-03-17T08:50:15.382Z,2.93
2019-03-17T08:52:44.258Z,2.57
2019-03-17T08:55:12.821Z,2.33
2019-03-17T08:57:41.342Z,2.30
2019-03-17T09:00:15.472Z,2.77
2019-03-17T09:02:43.927Z,2.40
2019-03-17T09:05:12.441Z,2.67
2019-03-17T09:07:40.936Z,2.33
2019-03-17T09:10:13.683Z,2.93
2019-03-17T09:12:42.193Z,2.60
2019-03-17T09:15:10.662Z,2.60
2019-03-17T09:17:39.094Z,2.77
2019-03-17T09:20:13.105Z,2.33
2019-03-17T09:22:41.731Z,2.73
2019-03-17T09:25:11.211Z,2.73
2019-03-17T09:27:39.793Z,2.80
2019-03-17T09:30:13.701Z,2.97
2019-03-17T09:32:42.145Z,2.80
2019-03-17T09:35:11.165Z,3.10
2019-03-17T09:37:39.581Z,3.10
2019-03-17T09:40:11.300Z,3.23
2019-03-17T09:42:39.708Z,2.83
2019-03-17T09:45:10.352Z,2.93
2019-03-17T09:47:41.115Z,3.13
2019-03-17T09:50:17.328Z,3.00
2019-03-17T09:52:45.776Z,2.80
2019-03-17T09:55:14.692Z,3.00
2019-03-17T09:57:43.097Z,2.83
2019-03-17T10:00:19.085Z,2.73
2019-03-17T10:02:47.499Z,2.90
2019-03-17T10:05:16.038Z,3.27
2019-03-17T10:07:44.509Z,1.60
2019-03-17T10:10:15.196Z,1.50
2019-03-17T10:12:43.745Z,1.33
2019-03-17T10:15:14.337Z,1.40
2019-03-17T10:17:42.791Z,1.50
2019-03-17T10:20:14.168Z,1.47
2019-03-17T10:22:42.632Z,1.57
2019-03-17T10:25:12.139Z,1.47
2019-03-17T10:27:40.654Z,1.70
2019-03-17T10:30:12.289Z,1.50
2019-03-17T10:32:40.744Z,1.50
2019-03-17T10:35:09.239Z,1.13
2019-03-17T10:37:37.673Z,1.20
2019-03-17T10:40:15.148Z,1.27
2019-03-17T10:42:43.539Z,1.50
2019-03-17T10:45:13.340Z,1.20
2019-03-17T10:47:41.753Z,1.20
2019-03-17T10:50:18.577Z,1.30
2019-03-17T10:52:47.138Z,1.10
2019-03-17T10:55:16.446Z,1.17
2019-03-17T10:57:44.900Z,1.20
2019-03-17T11:00:18.334Z,1.20
2019-03-17T11:02:46.862Z,1.00
2019-03-17T11:05:15.397Z,1.20
2019-03-17T11:07:43.793Z,1.20
2019-03-17T11:10:13.668Z,1.17
2019-03-17T11:12:42.377Z,1.30
2019-03-17T11:15:18.995Z,1.40
2019-03-17T11:17:47.452Z,1.27
2019-03-17T11:20:16.381Z,1.20
2019-03-17T11:22:44.778Z,1.23
2019-03-17T11:25:14.985Z,1.40
2019-03-17T11:27:43.408Z,1.40
2019-03-17T11:30:19.420Z,1.50
2019-03-17T11:32:47.834Z,1.40
2019-03-17T11:35:16.404Z,1.30
2019-03-17T11:37:44.886Z,1.20
2019-03-17T11:40:20.352Z,1.30
2019-03-17T11:42:50.062Z,1.50
2019-03-17T11:45:19.294Z,1.37
2019-03-17T11:47:47.712Z,1.30
2019-03-17T11:50:17.635Z,1.43
2019-03-17T11:52:46.509Z,1.30
2019-03-17T11:55:15.496Z,1.20
2019-03-17T11:57:44.087Z,1.40
2019-03-17T12:00:20.075Z,1.20
2019-03-17T12:02:48.881Z,1.97
2019-03-17T12:05:17.383Z,1.57
2019-03-17T12:07:45.835Z,1.57
2019-03-17T12:10:18.724Z,1.57
2019-03-17T12:12:47.248Z,1.30
2019-03-17T12:15:19.825Z,1.30
2019-03-17T12:17:48.342Z,1.13
2019-03-17T12:20:16.836Z,1.20
2019-03-17T12:22:45.390Z,1.40
2019-03-17T12:25:16.228Z,1.10
2019-03-17T12:27:44.767Z,1.30
2019-03-17T12:30:20.827Z,1.30
2019-03-17T12:32:50.716Z,1.37
2019-03-17T12:35:19.215Z,1.20
2019-03-17T12:37:47.723Z,1.13
2019-03-17T12:40:16.340Z,1.20
2019-03-17T12:42:44.792Z,1.30
2019-03-17T12:45:14.149Z,1.00
2019-03-17T12:47:42.578Z,1.30
2019-03-17T12:50:22.412Z,1.10
2019-03-17T12:52:50.816Z,1.17
2019-03-17T12:55:19.350Z,1.13
2019-03-17T12:57:47.776Z,1.10
2019-03-17T13:00:21.690Z,1.30
2019-03-17T13:02:50.114Z,1.30
2019-03-17T13:05:18.548Z,1.40
2019-03-17T13:07:46.992Z,1.30
2019-03-17T13:10:21.324Z,1.10
2019-03-17T13:12:49.772Z,1.20
2019-03-17T13:15:18.255Z,1.23
2019-03-17T13:17:46.886Z,1.63
2019-03-17T13:20:17.521Z,1.30
2019-03-17T13:22:45.936Z,1.23
2019-03-17T13:25:14.376Z,1.20
2019-03-17T13:27:42.959Z,1.50
2019-03-17T13:30:13.888Z,1.50
2019-03-17T13:32:42.387Z,1.30
2019-03-17T13:35:11.510Z,1.70
2019-03-17T13:37:39.917Z,1.50
2019-03-17T13:40:11.097Z,1.47
2019-03-17T13:42:39.670Z,1.40
2019-03-17T13:45:10.922Z,1.60
2019-03-17T13:47:39.364Z,1.47
2019-03-17T13:50:16.069Z,1.70
2019-03-17T13:52:44.486Z,1.50
2019-03-17T13:55:12.980Z,1.70
2019-03-17T13:57:44.179Z,1.50
2019-03-17T14:00:15.665Z,1.60
2019-03-17T14:02:44.955Z,1.80
2019-03-17T14:05:13.983Z,1.30
2019-03-17T14:07:42.437Z,1.30
2019-03-17T14:10:14.595Z,1.10
2019-03-17T14:12:43.379Z,1.30
2019-03-17T14:15:13.940Z,1.20
2019-03-17T14:17:42.474Z,1.10
2019-03-17T14:20:14.102Z,1.17
2019-03-17T14:22:42.592Z,1.20
2019-03-17T14:25:16.752Z,1.00
2019-03-17T14:27:45.164Z,1.20
2019-03-17T14:30:16.157Z,1.30
2019-03-17T14:32:45.554Z,1.40
2019-03-17T14:35:14.099Z,1.10
2019-03-17T14:37:42.522Z,1.10
2019-03-17T14:40:15.834Z,1.30
2019-03-17T14:42:49.240Z,1.20
2019-03-17T14:45:18.211Z,1.17
2019-03-17T14:47:54.138Z,1.10
2019-03-17T14:50:26.103Z,1.37
2019-03-17T14:52:54.530Z,1.20
2019-03-17T14:55:23.040Z,1.10
2019-03-17T14:57:51.593Z,1.10
2019-03-17T15:00:24.339Z,1.20
2019-03-17T15:02:52.946Z,1.23
2019-03-17T15:05:21.511Z,1.30
2019-03-17T15:07:50.022Z,1.40
2019-03-17T15:10:20.529Z,1.20
2019-03-17T15:12:49.111Z,1.10
2019-03-17T15:15:18.847Z,1.40
2019-03-17T15:17:47.410Z,1.27
2019-03-17T15:20:20.961Z,1.30
2019-03-17T15:22:49.546Z,1.40
2019-03-17T15:25:20.997Z,1.57
2019-03-17T15:27:49.461Z,1.20
2019-03-17T15:30:23.854Z,1.73
2019-03-17T15:32:52.226Z,1.27
2019-03-17T15:35:20.672Z,1.20
2019-03-17T15:37:49.181Z,1.43
2019-03-17T15:40:19.039Z,1.20
2019-03-17T15:42:47.615Z,1.40
2019-03-17T15:45:25.909Z,1.57
2019-03-17T15:47:54.404Z,1.70
2019-03-17T15:50:27.674Z,1.50
2019-03-17T15:52:56.266Z,1.60
2019-03-17T15:55:24.876Z,1.40
2019-03-17T15:57:53.629Z,1.90
2019-03-17T16:00:27.290Z,1.70
2019-03-17T16:02:56.299Z,1.50
2019-03-17T16:05:24.917Z,1.37
2019-03-17T16:07:53.475Z,1.20
2019-03-17T16:10:23.060Z,1.30
2019-03-17T16:12:51.554Z,1.20
2019-03-17T16:15:20.396Z,1.20
2019-03-17T16:17:49.178Z,1.30
2019-03-17T16:20:22.789Z,1.50
2019-03-17T16:22:51.620Z,1.17
2019-03-17T16:25:28.231Z,1.10
2019-03-17T16:27:56.810Z,1.20
2019-03-17T16:30:27.366Z,1.10
2019-03-17T16:32:56.115Z,1.10
2019-03-17T16:35:25.176Z,1.30
2019-03-17T16:37:56.353Z,1.50
2019-03-17T16:40:33.129Z,1.20
2019-03-17T16:43:01.713Z,1.20
2019-03-17T16:45:30.337Z,1.43
2019-03-17T16:47:58.846Z,1.20
2019-03-17T16:50:27.468Z,1.07
2019-03-17T16:52:55.969Z,1.00
2019-03-17T16:55:24.498Z,1.30
2019-03-17T16:57:53.024Z,1.27
2019-03-17T17:00:23.505Z,1.30
2019-03-17T17:02:52.218Z,1.50
2019-03-17T17:05:21.767Z,1.53
2019-03-17T17:07:50.334Z,1.30
2019-03-17T17:10:20.929Z,1.30
2019-03-17T17:12:49.625Z,1.40
2019-03-17T17:15:32.223Z,1.47
2019-03-17T17:18:00.632Z,1.60
2019-03-17T17:20:37.560Z,1.20
2019-03-17T17:23:06.175Z,1.53
2019-03-17T17:25:34.727Z,1.33
2019-03-17T17:28:03.385Z,1.57
2019-03-17T17:30:32.019Z,1.50
2019-03-17T17:33:00.465Z,1.47
2019-03-17T17:35:29.088Z,1.47
2019-03-17T17:37:57.776Z,2.03
2019-03-17T17:40:27.676Z,1.73
2019-03-17T17:42:56.250Z,1.70
2019-03-17T17:45:27.620Z,1.80
2019-03-17T17:47:56.266Z,1.83
2019-03-17T17:50:34.183Z,1.80
2019-03-17T17:53:03.227Z,1.80
2019-03-17T17:55:33.688Z,1.97
2019-03-17T17:58:04.251Z,2.13
2019-03-17T18:00:37.698Z,1.60
2019-03-17T18:03:06.310Z,2.00
2019-03-17T18:05:34.917Z,1.70
2019-03-17T18:08:05.221Z,1.83
2019-03-17T18:10:34.310Z,3.33
2019-03-17T18:13:03.244Z,2.20
2019-03-17T18:15:33.517Z,2.10
2019-03-17T18:18:02.730Z,2.00
2019-03-17T18:20:31.817Z,2.43
2019-03-17T18:23:00.346Z,1.90
2019-03-17T18:25:29.179Z,1.73
2019-03-17T18:27:57.883Z,1.87
2019-03-17T18:30:26.571Z,2.00
2019-03-17T18:32:55.151Z,1.93
2019-03-17T18:35:23.887Z,2.03
2019-03-17T18:37:52.991Z,2.00
2019-03-17T18:40:22.578Z,1.80
2019-03-17T18:42:51.121Z,3.10
2019-03-17T18:45:27.322Z,2.00
2019-03-17T18:47:57.587Z,1.90
2019-03-17T18:50:26.112Z,1.77
2019-03-17T18:52:54.621Z,1.90
2019-03-17T18:55:23.327Z,1.63
2019-03-17T18:57:51.857Z,1.70
2019-03-17T19:00:24.566Z,1.83
2019-03-17T19:02:53.765Z,1.80
2019-03-17T19:05:22.282Z,2.23
2019-03-17T19:07:51.023Z,1.80
2019-03-17T19:10:20.610Z,1.77
2019-03-17T19:12:49.529Z,1.90
2019-03-17T19:15:19.254Z,2.07
2019-03-17T19:17:47.733Z,1.80
2019-03-17T19:20:17.087Z,1.60
2019-03-17T19:22:45.527Z,2.90
2019-03-17T19:25:18.813Z,1.83
2019-03-17T19:27:47.378Z,1.70
2019-03-17T19:30:20.194Z,2.00
2019-03-17T19:32:48.697Z,2.03
2019-03-17T19:35:17.360Z,1.83
2019-03-17T19:37:45.783Z,1.97
2019-03-17T19:40:19.800Z,1.70
2019-03-17T19:42:58.106Z,1.70
2019-03-17T19:45:18.456Z,1.87
2019-03-17T19:47:46.891Z,2.03
2019-03-17T19:50:23.095Z,1.90
2019-03-17T19:52:51.529Z,2.07
2019-03-17T19:55:20.034Z,1.80
2019-03-17T19:57:48.650Z,2.00
2019-03-17T20:00:18.229Z,1.93
2019-03-17T20:02:48.087Z,1.90
2019-03-17T20:05:16.704Z,1.90
2019-03-17T20:07:45.263Z,2.13
2019-03-17T20:10:27.001Z,1.80
2019-03-17T20:12:55.473Z,1.93
2019-03-17T20:15:23.960Z,2.00
2019-03-17T20:17:52.434Z,2.23
2019-03-17T20:20:20.846Z,2.57
2019-03-17T20:22:49.319Z,1.80
2019-03-17T20:25:17.934Z,2.00
2019-03-17T20:27:46.413Z,2.10
2019-03-17T20:30:19.051Z,2.10
2019-03-17T20:32:47.705Z,2.00
2019-03-17T20:35:16.272Z,1.80
2019-03-17T20:37:45.378Z,2.03
2019-03-17T20:40:17.761Z,1.93
2019-03-17T20:42:46.209Z,1.80
2019-03-17T20:45:15.747Z,2.07
2019-03-17T20:47:44.168Z,1.90
2019-03-17T20:50:14.103Z,1.80
2019-03-17T20:52:42.547Z,2.70
2019-03-17T20:55:12.107Z,2.00
2019-03-17T20:57:40.566Z,2.50
2019-03-17T21:00:18.297Z,2.00
2019-03-17T21:02:46.750Z,1.87
2019-03-17T21:05:15.254Z,1.90
2019-03-17T21:07:44.230Z,2.10
2019-03-17T21:10:18.028Z,1.90
2019-03-17T21:12:46.509Z,2.10
2019-03-17T21:15:19.726Z,2.10
2019-03-17T21:17:48.150Z,2.50
2019-03-17T21:20:24.108Z,1.90
2019-03-17T21:22:52.826Z,2.13
2019-03-17T21:25:21.362Z,2.07
2019-03-17T21:27:49.761Z,2.73
2019-03-17T21:30:21.245Z,2.37
2019-03-17T21:32:49.732Z,2.07
2019-03-17T21:35:18.927Z,2.17
2019-03-17T21:37:47.404Z,2.00
2019-03-17T21:40:15.871Z,2.20
2019-03-17T21:42:44.396Z,2.40
2019-03-17T21:45:14.351Z,2.30
2019-03-17T21:47:49.489Z,2.23
2019-03-17T21:50:20.215Z,2.90
2019-03-17T21:52:51.525Z,2.50
2019-03-17T21:55:22.820Z,2.17
2019-03-17T21:57:51.313Z,2.53
2019-03-17T22:00:20.870Z,2.57
2019-03-17T22:02:50.847Z,2.60
2019-03-17T22:05:19.445Z,2.57
2019-03-17T22:07:51.122Z,2.60
2019-03-17T22:10:19.358Z,3.13
2019-03-17T22:12:47.834Z,2.80
2019-03-17T22:15:17.645Z,2.93
2019-03-17T22:17:46.143Z,2.40
2019-03-17T22:20:15.618Z,2.60
2019-03-17T22:22:44.106Z,3.10
2019-03-17T22:25:13.952Z,2.87
2019-03-17T22:27:42.401Z,2.50
2019-03-17T22:30:15.974Z,3.43
2019-03-17T22:32:44.443Z,3.13
2019-03-17T22:35:13.028Z,2.97
2019-03-17T22:37:41.563Z,3.40
2019-03-17T22:40:12.845Z,3.03
2019-03-17T22:42:41.346Z,2.90
2019-03-17T22:45:12.736Z,3.10
2019-03-17T22:47:41.235Z,3.23
2019-03-17T22:50:12.535Z,2.93
2019-03-17T22:52:40.948Z,2.73
2019-03-17T22:55:11.397Z,2.90
2019-03-17T22:57:39.864Z,2.87
2019-03-17T23:00:26.213Z,2.80
2019-03-17T23:02:55.636Z,3.17
2019-03-17T23:05:24.022Z,2.93
2019-03-17T23:07:52.545Z,2.37
2019-03-17T23:10:20.964Z,3.00
2019-03-17T23:12:49.365Z,2.63
2019-03-17T23:15:18.097Z,2.70
2019-03-17T23:17:46.521Z,2.70
2019-03-17T23:20:16.381Z,2.70
2019-03-17T23:22:44.971Z,3.33
2019-03-17T23:25:13.744Z,2.90
2019-03-17T23:27:42.292Z,2.63
2019-03-17T23:30:17.850Z,3.27
2019-03-17T23:32:49.051Z,3.00
2019-03-17T23:35:16.777Z,2.90
2019-03-17T23:37:45.186Z,3.00
2019-03-17T23:40:16.060Z,3.60
2019-03-17T23:42:44.551Z,4.03
2019-03-17T23:45:14.006Z,3.43
2019-03-17T23:47:42.509Z,3.57
2019-03-17T23:50:15.438Z,3.37
2019-03-17T23:52:43.823Z,3.67
2019-03-17T23:55:14.302Z,3.63
2019-03-17T23:57:42.775Z,3.63
